createdAt,value
2022-08-12T00:02:45.389Z,66.28
2022-08-12T00:05:32.196Z,64.92
2022-08-12T00:08:17.616Z,66.42
2022-08-12T00:11:18.380Z,66.78
2022-08-12T00:14:03.779Z,67.45
2022-08-12T00:16:49.148Z,67.83
2022-08-12T00:19:34.704Z,67.94
2022-08-12T00:22:20.601Z,69.91
2022-08-12T00:25:06.357Z,70.40
2022-08-12T00:27:51.930Z,70.36
2022-08-12T00:30:37.577Z,73.40
2022-08-12T00:33:22.819Z,72.34
2022-08-12T00:36:17.811Z,71.63
2022-08-12T00:39:17.902Z,68.85
2022-08-12T00:42:04.997Z,68.13
2022-08-12T00:44:31.612Z,70.78
2022-08-12T00:47:00.666Z,70.57
2022-08-12T00:49:29.416Z,69.30
2022-08-12T00:52:07.465Z,69.20
2022-08-12T00:54:43.588Z,69.42
2022-08-12T00:57:22.198Z,72.15
2022-08-12T01:00:20.973Z,71.41
2022-08-12T01:02:52.415Z,70.88
2022-08-12T01:05:40.676Z,69.83
2022-08-12T01:08:27.187Z,71.55
2022-08-12T01:11:14.032Z,71.14
2022-08-12T01:13:45.045Z,72.71
2022-08-12T01:16:12.288Z,73.76
2022-08-12T01:18:40.391Z,72.47
2022-08-12T01:21:12.468Z,71.32
2022-08-12T01:23:55.822Z,71.72
2022-08-12T01:26:24.848Z,72.08
2022-08-12T01:28:59.478Z,71.92
2022-08-12T01:31:29.452Z,71.37
2022-08-12T01:34:35.371Z,72.75
2022-08-12T01:37:00.992Z,70.61
2022-08-12T01:39:33.827Z,72.06
2022-08-12T01:42:05.564Z,74.07
2022-08-12T01:44:33.237Z,72.84
2022-08-12T01:47:43.369Z,73.13
2022-08-12T01:50:30.382Z,73.00
2022-08-12T01:53:18.867Z,72.49
2022-08-12T01:55:47.705Z,73.95
2022-08-12T01:58:56.170Z,73.55
2022-08-12T02:01:34.645Z,73.52
2022-08-12T02:04:36.658Z,74.12
2022-08-12T02:07:53.521Z,73.71
2022-08-12T02:10:56.919Z,75.29
2022-08-12T02:13:49.695Z,76.83
2022-08-12T02:16:54.186Z,76.18
2022-08-12T02:19:50.712Z,76.43
2022-08-12T02:22:38.540Z,76.43
2022-08-12T02:25:15.829Z,76.75
2022-08-12T02:27:48.519Z,76.37
2022-08-12T02:30:23.906Z,76.36
2022-08-12T02:32:54.800Z,76.58
2022-08-12T02:35:26.781Z,76.55
2022-08-12T02:37:57.491Z,76.75
2022-08-12T02:40:26.890Z,77.25
2022-08-12T02:43:04.546Z,77.61
2022-08-12T02:45:43.171Z,77.74
2022-08-12T02:48:11.376Z,77.62
2022-08-12T02:50:42.831Z,77.73
2022-08-12T02:53:10.878Z,78.11
2022-08-12T02:55:37.740Z,77.49
2022-08-12T02:58:09.262Z,77.22
2022-08-12T03:00:41.411Z,77.49
2022-08-12T03:03:11.441Z,78.32
2022-08-12T03:05:52.422Z,77.91
2022-08-12T03:08:32.602Z,77.33
2022-08-12T03:11:06.207Z,77.36
2022-08-12T03:13:42.104Z,77.93
2022-08-12T03:16:08.980Z,77.28
2022-08-12T03:18:36.116Z,78.80
2022-08-12T03:21:03.333Z,77.87
2022-08-12T03:23:31.197Z,78.61
2022-08-12T03:26:02.881Z,78.20
2022-08-12T03:28:50.914Z,77.40
2022-08-12T03:31:24.817Z,77.27
2022-08-12T03:34:02.165Z,76.89
2022-08-12T03:36:31.829Z,77.91
2022-08-12T03:39:38.213Z,76.79
2022-08-12T03:42:17.170Z,77.49
2022-08-12T03:45:15.830Z,77.90
2022-08-12T03:48:26.388Z,78.71
2022-08-12T03:51:12.865Z,79.18
2022-08-12T03:53:59.239Z,78.96
2022-08-12T03:56:44.555Z,80.34
2022-08-12T03:59:30.639Z,79.87
2022-08-12T04:01:58.511Z,80.20
2022-08-12T04:04:36.281Z,80.48
2022-08-12T04:07:08.285Z,80.36
2022-08-12T04:09:38.347Z,80.21
2022-08-12T04:12:26.149Z,81.53
2022-08-12T04:14:54.359Z,81.22
2022-08-12T04:17:22.019Z,80.86
2022-08-12T04:19:49.615Z,81.29
2022-08-12T04:22:16.860Z,81.96
2022-08-12T04:24:47.688Z,81.14
2022-08-12T04:27:17.398Z,81.23
2022-08-12T04:30:17.220Z,81.24
2022-08-12T04:32:32.275Z,81.30
2022-08-12T04:34:59.196Z,81.66
2022-08-12T04:37:26.188Z,82.09
2022-08-12T04:39:54.446Z,82.09
2022-08-12T04:42:21.933Z,81.87
2022-08-12T04:44:49.122Z,81.17
2022-08-12T04:47:17.092Z,81.11
2022-08-12T04:49:45.430Z,80.86
2022-08-12T04:52:12.740Z,80.58
2022-08-12T04:54:44.149Z,80.88
2022-08-12T04:57:11.087Z,81.52
2022-08-12T04:59:46.483Z,81.81
2022-08-12T05:02:21.036Z,80.91
2022-08-12T05:04:51.314Z,80.40
2022-08-12T05:07:18.260Z,80.68
2022-08-12T05:09:59.276Z,80.30
2022-08-12T05:12:37.417Z,80.39
2022-08-12T05:15:19.797Z,79.86
2022-08-12T05:17:53.578Z,79.46
2022-08-12T05:20:22.958Z,79.13
2022-08-12T05:22:56.967Z,79.41
2022-08-12T05:25:25.393Z,79.11
2022-08-12T05:27:58.345Z,79.31
2022-08-12T05:30:27.121Z,78.76
2022-08-12T05:32:58.977Z,78.77
2022-08-12T05:35:28.122Z,77.85
2022-08-12T05:38:14.876Z,78.05
2022-08-12T05:40:42.229Z,77.20
2022-08-12T05:43:09.322Z,76.43
2022-08-12T05:45:39.351Z,76.28
2022-08-12T05:48:09.747Z,75.72
2022-08-12T05:50:36.541Z,75.63
2022-08-12T05:53:03.590Z,75.37
2022-08-12T05:55:31.515Z,75.17
2022-08-12T05:57:59.123Z,75.47
2022-08-12T06:00:26.375Z,75.70
2022-08-12T06:03:01.446Z,75.07
2022-08-12T06:05:52.734Z,74.72
2022-08-12T06:08:22.961Z,74.45
2022-08-12T06:10:50.662Z,74.00
2022-08-12T06:13:28.355Z,73.86
2022-08-12T06:16:07.538Z,73.86
2022-08-12T06:18:34.508Z,73.29
2022-08-12T06:21:02.028Z,72.52
2022-08-12T06:23:30.147Z,72.58
2022-08-12T06:25:57.853Z,72.00
2022-08-12T06:28:25.119Z,71.84
2022-08-12T06:33:57.858Z,70.92
2022-08-12T06:36:33.574Z,70.70
2022-08-12T06:39:00.674Z,70.97
2022-08-12T06:42:31.354Z,69.74
2022-08-12T06:44:33.019Z,69.49
2022-08-12T06:47:00.207Z,68.97
2022-08-12T06:49:28.480Z,67.88
2022-08-12T06:51:56.822Z,68.45
2022-08-12T06:54:31.305Z,67.19
2022-08-12T06:58:08.208Z,66.74
2022-08-12T06:59:45.948Z,66.07
2022-08-12T07:02:13.372Z,65.24
2022-08-12T07:04:40.790Z,64.74
2022-08-12T07:07:09.224Z,64.17
2022-08-12T07:10:03.624Z,63.32
2022-08-12T07:12:28.083Z,63.23
2022-08-12T07:15:02.131Z,60.88
2022-08-12T07:17:36.429Z,60.93
2022-08-12T07:20:10.004Z,61.44
2022-08-12T07:22:37.752Z,59.25
2022-08-12T07:25:23.536Z,58.11
2022-08-12T07:27:53.978Z,58.60
2022-08-12T07:30:20.916Z,59.36
2022-08-12T07:32:51.775Z,59.45
2022-08-12T07:35:19.851Z,58.19
2022-08-12T07:37:47.667Z,54.35
2022-08-12T07:40:15.591Z,56.33
2022-08-12T07:42:44.164Z,51.16
2022-08-12T07:45:12.438Z,53.65
2022-08-12T07:47:43.663Z,51.48
2022-08-12T07:50:17.856Z,49.57
2022-08-12T07:52:48.665Z,46.13
2022-08-12T07:55:16.925Z,47.76
2022-08-12T07:57:57.971Z,48.08
2022-08-12T08:00:31.668Z,45.89
2022-08-12T08:02:59.062Z,45.39
2022-08-12T08:05:29.046Z,44.16
2022-08-12T08:08:02.566Z,45.20
2022-08-12T08:10:30.689Z,44.32
2022-08-12T08:12:59.642Z,43.50
2022-08-12T08:16:00.794Z,43.89
2022-08-12T08:18:26.826Z,44.39
2022-08-12T08:20:55.203Z,44.67
2022-08-12T08:23:21.919Z,41.81
2022-08-12T08:25:56.735Z,42.58
2022-08-12T08:28:23.388Z,42.40
2022-08-12T08:30:50.461Z,43.41
2022-08-12T08:33:23.641Z,42.16
2022-08-12T08:36:07.683Z,41.79
2022-08-12T08:38:57.680Z,40.30
2022-08-12T08:42:15.210Z,38.83
2022-08-12T08:44:32.209Z,38.76
2022-08-12T08:47:05.770Z,39.46
2022-08-12T08:49:35.175Z,38.93
2022-08-12T08:52:06.284Z,38.83
2022-08-12T08:54:34.287Z,37.58
2022-08-12T08:57:02.777Z,37.94
2022-08-12T08:59:30.438Z,37.91
2022-08-12T09:01:57.460Z,36.26
2022-08-12T09:05:12.524Z,36.72
2022-08-12T09:07:16.731Z,36.97
2022-08-12T09:10:02.419Z,37.13
2022-08-12T09:12:54.698Z,37.47
2022-08-12T09:18:12.225Z,37.27
2022-08-12T09:20:42.392Z,37.10
2022-08-12T09:23:59.788Z,36.19
2022-08-12T09:26:03.971Z,34.80
2022-08-12T09:28:33.676Z,35.59
2022-08-12T09:31:00.535Z,35.04
2022-08-12T09:34:27.833Z,35.41
2022-08-12T09:36:31.101Z,34.88
2022-08-12T09:40:03.264Z,34.82
2022-08-12T09:42:39.129Z,34.15
2022-08-12T09:45:24.668Z,34.16
2022-08-12T09:48:10.048Z,33.69
2022-08-12T09:50:55.076Z,33.49
2022-08-12T09:53:29.458Z,33.34
2022-08-12T09:56:58.968Z,33.90
2022-08-12T09:58:59.879Z,32.94
2022-08-12T10:01:35.296Z,33.60
2022-08-12T10:04:19.872Z,33.03
2022-08-12T10:06:54.672Z,33.47
2022-08-12T10:09:28.959Z,32.77
2022-08-12T10:12:34.700Z,32.41
2022-08-12T10:15:04.957Z,33.53
2022-08-12T10:17:34.925Z,32.49
2022-08-12T10:20:24.952Z,32.46
2022-08-12T10:23:01.951Z,32.26
2022-08-12T10:26:34.916Z,32.57
2022-08-12T10:29:02.475Z,31.99
2022-08-12T10:32:20.086Z,32.09
2022-08-12T10:34:27.855Z,31.61
2022-08-12T10:37:22.771Z,31.97
2022-08-12T10:40:07.380Z,32.77
2022-08-12T10:43:00.484Z,32.58
2022-08-12T10:45:38.051Z,31.44
2022-08-12T10:48:21.219Z,32.17
2022-08-12T10:50:58.301Z,31.75
2022-08-12T10:53:46.040Z,32.25
2022-08-12T10:56:17.800Z,31.69
2022-08-12T10:58:46.785Z,32.66
2022-08-12T11:01:48.856Z,32.19
2022-08-12T11:04:28.474Z,32.14
2022-08-12T11:07:05.444Z,33.15
2022-08-12T11:10:00.936Z,32.66
2022-08-12T11:12:56.933Z,32.53
2022-08-12T11:15:24.384Z,32.28
2022-08-12T11:18:03.272Z,32.25
2022-08-12T11:20:31.422Z,33.06
2022-08-12T11:23:04.164Z,32.72
2022-08-12T11:25:57.949Z,31.91
2022-08-12T11:28:34.709Z,32.08
2022-08-12T11:31:07.324Z,33.08
2022-08-12T11:34:06.235Z,32.87
2022-08-12T11:36:28.448Z,33.79
2022-08-12T11:38:57.700Z,32.25
2022-08-12T11:41:31.823Z,32.51
2022-08-12T11:44:35.044Z,31.71
2022-08-12T11:46:53.704Z,31.64
2022-08-12T11:49:30.582Z,30.76
2022-08-12T11:52:01.100Z,31.49
2022-08-12T11:54:30.073Z,31.44
2022-08-12T11:57:02.400Z,31.32
2022-08-12T12:02:21.692Z,30.73
2022-08-12T12:04:53.111Z,31.73
2022-08-12T12:08:36.702Z,31.32
2022-08-12T12:10:17.951Z,30.51
2022-08-12T12:12:49.434Z,29.44
2022-08-12T12:15:25.299Z,29.01
2022-08-12T12:18:08.240Z,29.38
2022-08-12T12:20:40.132Z,29.43
2022-08-12T12:23:28.879Z,30.06
2022-08-12T12:26:07.138Z,27.96
2022-08-12T12:28:40.841Z,28.47
2022-08-12T12:32:10.164Z,27.88
2022-08-12T12:34:11.946Z,27.67
2022-08-12T12:36:58.203Z,27.42
2022-08-12T12:39:28.168Z,27.79
2022-08-12T12:42:42.725Z,27.72
2022-08-12T12:44:53.420Z,27.99
2022-08-12T12:47:28.657Z,26.91
2022-08-12T12:49:59.317Z,28.10
2022-08-12T12:52:28.563Z,27.58
2022-08-12T12:54:59.230Z,28.73
2022-08-12T12:57:59.759Z,27.85
2022-08-12T13:00:18.493Z,28.47
2022-08-12T13:02:56.024Z,28.09
2022-08-12T13:05:27.895Z,28.55
2022-08-12T13:08:00.686Z,27.89
2022-08-12T13:10:30.982Z,26.87
2022-08-12T13:14:10.082Z,27.51
2022-08-12T13:16:01.852Z,28.10
2022-08-12T13:18:31.853Z,27.33
2022-08-12T13:20:59.883Z,28.10
2022-08-12T13:23:37.328Z,28.26
2022-08-12T13:26:04.662Z,27.71
2022-08-12T13:28:33.361Z,26.83
2022-08-12T13:31:05.352Z,27.62
2022-08-12T13:33:48.535Z,27.48
2022-08-12T13:36:25.524Z,27.65
2022-08-12T13:38:54.649Z,28.03
2022-08-12T13:41:36.935Z,28.42
2022-08-12T13:44:10.622Z,28.09
2022-08-12T13:46:41.237Z,27.22
2022-08-12T13:49:17.708Z,27.91
2022-08-12T13:52:06.350Z,27.43
2022-08-12T13:54:37.198Z,28.20
2022-08-12T13:57:10.930Z,28.35
2022-08-12T13:59:48.774Z,27.73
2022-08-12T14:02:25.371Z,28.06
2022-08-12T14:04:56.351Z,28.17
2022-08-12T14:07:28.595Z,28.39
2022-08-12T14:10:31.780Z,28.70
2022-08-12T14:13:05.313Z,28.14
2022-08-12T14:15:47.836Z,28.33
2022-08-12T14:18:18.556Z,28.30
2022-08-12T14:20:48.905Z,28.67
2022-08-12T14:24:05.206Z,27.51
2022-08-12T14:26:15.087Z,28.50
2022-08-12T14:28:57.556Z,28.10
2022-08-12T14:31:31.382Z,28.49
2022-08-12T14:33:59.973Z,29.11
2022-08-12T14:36:29.479Z,28.52
2022-08-12T14:39:01.348Z,27.58
2022-08-12T14:41:37.269Z,27.48
2022-08-12T14:44:58.107Z,28.69
2022-08-12T14:47:07.550Z,27.44
2022-08-12T14:50:37.020Z,27.74
2022-08-12T14:53:15.412Z,28.26
2022-08-12T14:58:03.178Z,27.34
2022-08-12T15:00:52.477Z,27.15
2022-08-12T15:03:52.565Z,27.63
2022-08-12T15:06:44.666Z,27.12
2022-08-12T15:09:12.848Z,26.98
2022-08-12T15:11:54.925Z,26.84
2022-08-12T15:14:30.393Z,27.30
2022-08-12T15:17:02.183Z,27.83
2022-08-12T15:20:27.961Z,27.32
2022-08-12T15:22:35.298Z,27.25
2022-08-12T15:25:09.603Z,27.08
2022-08-12T15:28:20.402Z,27.35
2022-08-12T15:30:32.124Z,27.25
2022-08-12T15:33:00.505Z,27.62
2022-08-12T15:35:53.128Z,27.29
2022-08-12T15:38:31.527Z,27.13
2022-08-12T15:41:02.116Z,28.80
2022-08-12T15:43:51.626Z,27.20
2022-08-12T15:46:25.551Z,27.36
2022-08-12T15:48:53.902Z,28.03
2022-08-12T15:51:59.417Z,27.46
2022-08-12T15:54:35.144Z,28.39
2022-08-12T15:57:16.999Z,27.70
2022-08-12T16:00:00.252Z,27.92
2022-08-12T16:02:50.084Z,28.45
2022-08-12T16:06:11.527Z,27.82
2022-08-12T16:08:19.704Z,27.71
2022-08-12T16:10:53.398Z,27.77
2022-08-12T16:13:32.821Z,27.78
2022-08-12T16:16:23.140Z,27.67
2022-08-12T16:18:56.054Z,28.10
2022-08-12T16:21:52.654Z,28.11
2022-08-12T16:24:15.420Z,28.12
2022-08-12T16:26:45.207Z,28.99
2022-08-12T16:29:24.955Z,29.46
2022-08-12T16:31:55.477Z,28.96
2022-08-12T16:34:42.340Z,29.16
2022-08-12T16:37:14.680Z,29.49
2022-08-12T16:39:59.893Z,28.74
2022-08-12T16:42:29.338Z,29.08
2022-08-12T16:45:02.761Z,29.55
2022-08-12T16:47:57.527Z,29.34
2022-08-12T16:50:21.026Z,29.85
2022-08-12T16:53:02.105Z,30.58
2022-08-12T16:55:41.902Z,29.99
2022-08-12T16:58:27.976Z,29.99
2022-08-12T17:00:55.722Z,29.57
2022-08-12T17:03:28.942Z,30.67
2022-08-12T17:06:00.010Z,31.13
2022-08-12T17:08:29.141Z,31.34
2022-08-12T17:10:57.238Z,31.55
2022-08-12T17:13:27.169Z,31.38
2022-08-12T17:16:06.323Z,31.47
2022-08-12T17:18:57.035Z,31.62
2022-08-12T17:21:41.178Z,31.70
2022-08-12T17:24:21.614Z,32.61
2022-08-12T17:26:51.887Z,32.17
2022-08-12T17:29:32.129Z,32.51
2022-08-12T17:32:11.707Z,31.95
2022-08-12T17:35:00.156Z,32.26
2022-08-12T17:37:28.239Z,31.83
2022-08-12T17:40:12.383Z,33.44
2022-08-12T17:42:47.627Z,32.41
2022-08-12T17:45:20.787Z,33.02
2022-08-12T17:48:00.780Z,33.11
2022-08-12T17:50:50.443Z,32.91
2022-08-12T17:53:22.084Z,33.92
2022-08-12T17:55:51.844Z,32.37
2022-08-12T17:58:37.373Z,32.97
2022-08-12T18:01:11.251Z,32.68
2022-08-12T18:04:05.144Z,32.75
2022-08-12T18:06:28.537Z,33.84
2022-08-12T18:08:59.326Z,32.94
2022-08-12T18:12:04.781Z,32.77
2022-08-12T18:14:37.019Z,34.27
2022-08-12T18:17:08.205Z,34.78
2022-08-12T18:20:05.169Z,33.98
2022-08-12T18:22:31.706Z,34.56
2022-08-12T18:25:03.828Z,34.71
2022-08-12T18:27:43.840Z,34.95
2022-08-12T18:30:20.331Z,34.99
2022-08-12T18:32:54.166Z,35.07
2022-08-12T18:35:47.927Z,35.78
2022-08-12T18:38:22.450Z,36.50
2022-08-12T18:41:10.823Z,36.40
2022-08-12T18:44:00.279Z,36.59
2022-08-12T18:46:56.036Z,36.37
2022-08-12T18:49:39.598Z,36.71
2022-08-12T18:52:11.933Z,36.33
2022-08-12T18:54:49.239Z,36.53
2022-08-12T18:58:06.151Z,37.04
2022-08-12T19:00:20.969Z,37.82
2022-08-12T19:02:53.946Z,37.01
2022-08-12T19:05:53.228Z,37.54
2022-08-12T19:08:15.503Z,38.82
2022-08-12T19:10:50.622Z,38.28
2022-08-12T19:13:50.589Z,38.36
2022-08-12T19:16:23.836Z,39.00
2022-08-12T19:18:53.163Z,38.30
2022-08-12T19:21:20.915Z,37.89
2022-08-12T19:24:13.642Z,37.76
2022-08-12T19:26:43.548Z,37.39
2022-08-12T19:29:15.591Z,38.36
2022-08-12T19:31:58.318Z,38.49
2022-08-12T19:36:06.981Z,38.38
2022-08-12T19:38:04.366Z,38.74
2022-08-12T19:40:31.181Z,38.69
2022-08-12T19:43:17.806Z,39.84
2022-08-12T19:45:52.254Z,39.97
2022-08-12T19:48:24.277Z,39.96
2022-08-12T19:50:55.890Z,40.24
2022-08-12T19:53:27.637Z,40.28
2022-08-12T19:55:57.135Z,43.19
2022-08-12T19:58:26.723Z,43.35
2022-08-12T20:00:55.584Z,40.64
2022-08-12T20:03:39.320Z,41.23
2022-08-12T20:06:13.959Z,42.82
2022-08-12T20:08:48.997Z,41.44
2022-08-12T20:12:14.441Z,42.33
2022-08-12T20:14:19.821Z,43.79
2022-08-12T20:16:57.906Z,43.49
2022-08-12T20:20:05.522Z,42.65
2022-08-12T20:22:29.846Z,44.92
2022-08-12T20:25:01.060Z,44.17
2022-08-12T20:28:03.281Z,45.57
2022-08-12T20:33:17.439Z,45.44
2022-08-12T20:36:13.948Z,45.08
2022-08-12T20:38:40.593Z,45.80
2022-08-12T20:41:16.266Z,46.72
2022-08-12T20:43:50.734Z,46.17
2022-08-12T20:46:21.953Z,46.09
2022-08-12T20:48:54.872Z,45.93
2022-08-12T20:51:27.575Z,45.37
2022-08-12T20:53:58.744Z,46.66
2022-08-12T20:56:35.506Z,47.17
2022-08-12T20:59:11.064Z,50.01
2022-08-12T21:01:47.904Z,51.59
2022-08-12T21:04:36.769Z,51.06
2022-08-12T21:07:09.818Z,49.98
2022-08-12T21:09:51.971Z,50.15
2022-08-12T21:12:31.144Z,52.09
2022-08-12T21:15:24.048Z,48.73
2022-08-12T21:18:10.714Z,50.70
2022-08-12T21:20:55.820Z,50.48
2022-08-12T21:23:23.980Z,51.57
2022-08-12T21:25:56.449Z,49.96
2022-08-12T21:28:27.597Z,50.41
2022-08-12T21:32:35.120Z,50.52
2022-08-12T21:34:08.088Z,50.27
2022-08-12T21:36:48.290Z,51.65
2022-08-12T21:39:35.050Z,52.75
2022-08-12T21:42:06.988Z,50.50
2022-08-12T21:45:46.020Z,52.38
2022-08-12T21:47:29.960Z,51.78
2022-08-12T21:50:06.512Z,52.30
2022-08-12T21:52:37.470Z,52.05
2022-08-12T21:55:18.019Z,54.06
2022-08-12T21:57:53.374Z,53.47
2022-08-12T22:00:32.327Z,54.18
2022-08-12T22:04:04.396Z,55.77
2022-08-12T22:06:31.529Z,55.92
2022-08-12T22:09:17.262Z,56.87
2022-08-12T22:11:58.726Z,57.55
2022-08-12T22:14:29.809Z,58.23
2022-08-12T22:17:00.506Z,59.12
2022-08-12T22:19:29.199Z,60.05
2022-08-12T22:22:03.982Z,61.05
2022-08-12T22:24:34.197Z,61.46
2022-08-12T22:27:17.912Z,61.73
2022-08-12T22:30:11.241Z,61.76
2022-08-12T22:32:49.972Z,60.76
2022-08-12T22:35:56.639Z,61.80
2022-08-12T22:38:20.295Z,62.75
2022-08-12T22:40:49.490Z,62.96
2022-08-12T22:43:37.797Z,63.45
2022-08-12T22:46:53.530Z,63.41
2022-08-12T22:49:36.428Z,63.74
2022-08-12T22:52:12.245Z,63.77
2022-08-12T22:54:58.053Z,64.21
2022-08-12T22:57:54.401Z,65.43
2022-08-12T23:00:24.689Z,67.32
2022-08-12T23:03:02.637Z,66.66
2022-08-12T23:05:56.719Z,65.91
2022-08-12T23:08:22.652Z,66.95
2022-08-12T23:10:50.401Z,66.96
2022-08-12T23:13:42.878Z,66.42
2022-08-12T23:16:28.085Z,67.90
2022-08-12T23:18:59.704Z,67.90
2022-08-12T23:21:40.167Z,67.54
2022-08-12T23:24:17.431Z,67.17
2022-08-12T23:27:05.380Z,67.86
2022-08-12T23:29:43.172Z,67.13
2022-08-12T23:32:36.684Z,66.48
2022-08-12T23:35:03.558Z,65.50
2022-08-12T23:37:47.374Z,65.04
2022-08-12T23:40:22.223Z,64.50
2022-08-12T23:42:58.489Z,63.95
2022-08-12T23:45:31.460Z,64.49
2022-08-12T23:48:03.187Z,63.80
2022-08-12T23:50:34.125Z,64.13
2022-08-12T23:53:17.021Z,64.75
2022-08-12T23:55:50.758Z,65.83
2022-08-12T23:58:25.810Z,66.73
